Terminal Aerodrome Forecast
Issued by NWS

Home | Current Version | Previous Version | Graphics & Text | Print | Product List | Glossary On
Versions: 1 2 3 4 5 6 7 8 9 10 11 12 13 14 15 16
000
FTUS43 KTOP 211720
TAFFOE
TAF
KFOE 211720Z 2118/2218 20013G20KT P6SM SKC
     FM220000 19012KT P6SM SKC
     FM220600 19013KT P6SM SKC WS015/22040KT
     FM221200 22011KT P6SM SKC=

USA.gov is the U.S. government's official web portal to all federal, state and local government web resources and services.